Time;durP1;ratioP1;P1;durP2;ratioP2;P2;SDS_P1;SDS_P2;PMS_P1;PMS_P2;Temp;Humidity;BMP_temperature;BMP_pressure;BME280_temperature;BME280_humidity;BME280_pressure;Samples;Min_cycle;Max_cycle;Signal;HPM_P1;HPM_P2
2022/12/27 00:00:58;;;;;;;9.13;2.33;;;;;;;;;;5039600;28;20028;-92
2022/12/27 00:03:23;;;;;;;10.97;2.00;;;;;;;;;;5044179;28;20029;-91
2022/12/27 00:05:48;;;;;;;9.60;2.40;;;;;;;;;;5060865;28;20014;-91
2022/12/27 00:08:14;;;;;;;11.93;2.43;;;;;;;;;;5042847;28;20064;-92
2022/12/27 00:10:39;;;;;;;17.87;2.17;;;;;;;;;;5037947;28;20025;-93
2022/12/27 00:13:05;;;;;;;10.43;2.03;;;;;;;;;;5052445;28;20036;-92
2022/12/27 00:15:31;;;;;;;12.93;2.63;;;;;;;;;;5053231;28;20025;-92
2022/12/27 00:17:57;;;;;;;12.40;2.67;;;;;;;;;;5051028;28;20025;-92
2022/12/27 00:20:22;;;;;;;11.60;2.17;;;;;;;;;;5054017;28;20033;-92
2022/12/27 00:22:49;;;;;;;9.07;2.20;;;;;;;;;;5060704;28;20017;-92
2022/12/27 00:25:14;;;;;;;8.53;1.80;;;;;;;;;;5043608;28;20018;-91
2022/12/27 00:27:39;;;;;;;8.80;2.07;;;;;;;;;;5059953;28;20154;-92
2022/12/27 00:30:05;;;;;;;7.20;2.30;;;;;;;;;;5032848;28;20105;-91
2022/12/27 00:32:30;;;;;;;8.50;2.13;;;;;;;;;;5053390;28;20042;-92
2022/12/27 00:34:55;;;;;;;8.70;2.30;;;;;;;;;;5040498;28;20029;-91
2022/12/27 00:37:21;;;;;;;8.97;2.27;;;;;;;;;;5057115;28;20032;-92
2022/12/27 00:39:46;;;;;;;7.13;2.40;;;;;;;;;;5036147;28;20017;-92
2022/12/27 00:42:11;;;;;;;8.63;2.30;;;;;;;;;;5035166;28;20028;-92
2022/12/27 00:44:36;;;;;;;6.40;2.60;;;;;;;;;;5034792;28;20045;-92
2022/12/27 00:47:02;;;;;;;11.10;2.27;;;;;;;;;;5034866;28;20045;-92
2022/12/27 00:49:27;;;;;;;7.00;2.20;;;;;;;;;;5050817;28;20116;-91
2022/12/27 00:51:52;;;;;;;8.63;2.27;;;;;;;;;;5059395;28;20021;-91
2022/12/27 00:54:17;;;;;;;10.93;2.70;;;;;;;;;;5047244;28;20079;-92
2022/12/27 00:56:43;;;;;;;6.90;1.50;;;;;;;;;;5059170;28;20017;-92
2022/12/27 00:59:09;;;;;;;8.40;1.77;;;;;;;;;;5049450;28;20013;-91
2022/12/27 01:01:35;;;;;;;3.37;1.10;;;;;;;;;;5043353;28;20025;-92
2022/12/27 01:04:01;;;;;;;5.37;1.43;;;;;;;;;;5058539;28;20457;-91
2022/12/27 01:06:27;;;;;;;6.17;1.60;;;;;;;;;;5055576;28;20036;-91
2022/12/27 01:08:53;;;;;;;6.87;1.83;;;;;;;;;;5040397;28;20021;-92
2022/12/27 01:11:18;;;;;;;5.50;2.07;;;;;;;;;;5040541;28;20099;-92
2022/12/27 01:13:44;;;;;;;9.90;1.43;;;;;;;;;;5038642;28;20018;-91
2022/12/27 01:16:11;;;;;;;8.93;1.93;;;;;;;;;;5041234;28;20017;-91
2022/12/27 01:18:36;;;;;;;8.17;1.77;;;;;;;;;;5038970;28;20555;-91
2022/12/27 01:21:06;;;;;;;5.77;1.50;;;;;;;;;;5040846;28;20041;-91
2022/12/27 01:23:31;;;;;;;11.77;1.90;;;;;;;;;;5043801;28;20104;-91
2022/12/27 01:26:00;;;;;;;11.57;2.07;;;;;;;;;;5060373;28;20018;-91
2022/12/27 01:28:26;;;;;;;11.90;1.87;;;;;;;;;;5058110;28;20080;-92
2022/12/27 01:30:51;;;;;;;8.00;1.77;;;;;;;;;;5038571;28;20025;-92
2022/12/27 01:33:16;;;;;;;12.57;1.90;;;;;;;;;;5054425;28;20071;-92
2022/12/27 01:35:41;;;;;;;9.70;2.00;;;;;;;;;;5039473;28;20113;-92
2022/12/27 01:38:06;;;;;;;10.80;2.30;;;;;;;;;;5054430;28;20021;-92
2022/12/27 01:40:34;;;;;;;6.30;1.77;;;;;;;;;;5054730;28;20112;-92
2022/12/27 01:42:59;;;;;;;7.33;1.60;;;;;;;;;;5053911;28;20021;-91
2022/12/27 01:45:26;;;;;;;10.87;1.53;;;;;;;;;;5038163;28;20018;-92
2022/12/27 01:47:58;;;;;;;7.10;1.83;;;;;;;;;;5039235;28;20477;-92
2022/12/27 01:50:23;;;;;;;5.82;1.45;;;;;;;;;;5054640;28;20435;-92
2022/12/27 01:52:48;;;;;;;10.07;1.73;;;;;;;;;;5038276;28;20029;-91
2022/12/27 01:55:19;;;;;;;7.07;1.77;;;;;;;;;;5038784;28;20026;-92
2022/12/27 01:57:44;;;;;;;7.67;1.47;;;;;;;;;;5055649;28;20096;-91
2022/12/27 02:00:10;;;;;;;8.40;1.67;;;;;;;;;;5056055;28;20095;-92
2022/12/27 02:02:36;;;;;;;9.13;1.67;;;;;;;;;;5039677;28;20036;-92
2022/12/27 02:05:01;;;;;;;8.53;1.57;;;;;;;;;;5038974;28;20047;-92
2022/12/27 02:07:30;;;;;;;6.83;1.60;;;;;;;;;;5038649;28;20057;-92
2022/12/27 02:09:58;;;;;;;7.60;1.17;;;;;;;;;;5035968;28;20049;-92
2022/12/27 02:12:24;;;;;;;7.40;1.60;;;;;;;;;;5054950;28;20013;-92
2022/12/27 02:14:49;;;;;;;8.60;2.40;;;;;;;;;;5038198;28;20026;-91
2022/12/27 02:17:19;;;;;;;5.97;1.10;;;;;;;;;;5037939;28;20031;-91
2022/12/27 02:20:03;;;;;;;8.27;1.30;;;;;;;;;;5037694;28;20025;-91
2022/12/27 02:25:42;;;;;;;3.57;1.10;;;;;;;;;;5036144;28;20039;-86
2022/12/27 02:28:26;;;;;;;7.00;1.43;;;;;;;;;;5018778;28;20131;-87
2022/12/27 02:30:57;;;;;;;10.30;1.70;;;;;;;;;;5032164;28;20097;-87
2022/12/27 02:33:25;;;;;;;4.73;1.17;;;;;;;;;;5047719;28;20021;-87
2022/12/27 02:35:55;;;;;;;7.10;1.10;;;;;;;;;;5031764;28;20017;-86
2022/12/27 02:38:22;;;;;;;7.37;1.60;;;;;;;;;;5047408;28;20406;-86
2022/12/27 02:55:17;;;;;;;4.30;1.20;;;;;;;;;;5032175;28;20035;-85
2022/12/27 02:57:48;;;;;;;4.90;1.50;;;;;;;;;;5046796;28;20025;-87
2022/12/27 03:03:22;;;;;;;7.20;1.67;;;;;;;;;;5032101;28;20025;-87
2022/12/27 03:06:38;;;;;;;5.63;1.57;;;;;;;;;;5033660;28;20411;-87
2022/12/27 03:08:36;;;;;;;8.73;1.13;;;;;;;;;;5030577;28;20033;-86
2022/12/27 03:16:41;;;;;;;7.17;1.30;;;;;;;;;;5031284;28;20037;-87
2022/12/27 03:19:12;;;;;;;14.48;1.40;;;;;;;;;;5030190;28;20030;-86
2022/12/27 03:27:16;;;;;;;6.60;1.53;;;;;;;;;;5036025;28;20087;-87
2022/12/27 03:35:14;;;;;;;6.40;1.33;;;;;;;;;;5031648;28;20029;-87
2022/12/27 03:38:01;;;;;;;10.90;2.03;;;;;;;;;;5050492;28;20045;-87
2022/12/27 03:40:33;;;;;;;5.70;1.40;;;;;;;;;;5050922;28;20458;-87
2022/12/27 03:43:11;;;;;;;5.13;1.63;;;;;;;;;;5050486;28;20091;-87
2022/12/27 03:48:28;;;;;;;7.27;1.17;;;;;;;;;;5033866;28;20136;-87
2022/12/27 03:50:55;;;;;;;3.77;1.40;;;;;;;;;;5050431;28;20018;-87
2022/12/27 03:53:29;;;;;;;6.27;1.43;;;;;;;;;;5050586;28;20686;-87
2022/12/27 03:55:55;;;;;;;14.53;1.80;;;;;;;;;;5050335;28;20021;-87
2022/12/27 03:58:20;;;;;;;8.33;1.70;;;;;;;;;;5050436;28;20433;-87
2022/12/27 04:00:45;;;;;;;8.77;1.83;;;;;;;;;;5041580;28;20504;-86
2022/12/27 04:03:11;;;;;;;4.60;1.40;;;;;;;;;;5016029;28;20021;-87
2022/12/27 04:05:36;;;;;;;5.07;1.30;;;;;;;;;;5019684;28;20361;-87
2022/12/27 04:35:20;;;;;;;4.80;1.70;;;;;;;;;;5034556;28;20036;-86
2022/12/27 04:37:45;;;;;;;9.67;1.60;;;;;;;;;;5049528;28;20013;-87
2022/12/27 04:56:35;;;;;;;8.80;1.67;;;;;;;;;;5033968;28;20684;-87
2022/12/27 05:02:02;;;;;;;8.57;1.77;;;;;;;;;;5032508;28;20095;-87
2022/12/27 05:04:28;;;;;;;10.00;2.00;;;;;;;;;;5049146;28;20030;-87
2022/12/27 05:06:54;;;;;;;13.00;2.17;;;;;;;;;;5048809;28;20043;-86
2022/12/27 05:14:47;;;;;;;7.67;1.83;;;;;;;;;;5033884;28;20031;-86
2022/12/27 05:17:12;;;;;;;8.37;1.70;;;;;;;;;;5047960;28;20116;-87
2022/12/27 05:19:37;;;;;;;7.70;2.20;;;;;;;;;;5032506;28;20021;-87
2022/12/27 05:27:30;;;;;;;10.03;2.00;;;;;;;;;;5021049;28;20049;-87
2022/12/27 05:29:55;;;;;;;13.10;2.30;;;;;;;;;;5048828;28;20018;-87
2022/12/27 05:32:21;;;;;;;6.63;1.90;;;;;;;;;;5047952;28;20029;-86
2022/12/27 05:34:46;;;;;;;9.23;1.83;;;;;;;;;;5033685;28;20498;-86
2022/12/27 05:37:11;;;;;;;6.80;2.00;;;;;;;;;;5020296;28;20096;-87
2022/12/27 05:39:36;;;;;;;8.97;2.40;;;;;;;;;;5047858;28;20237;-87
2022/12/27 05:42:02;;;;;;;8.63;1.77;;;;;;;;;;5048272;28;20338;-87
2022/12/27 05:44:27;;;;;;;8.00;2.17;;;;;;;;;;5047710;28;20032;-87
2022/12/27 05:46:53;;;;;;;8.57;2.20;;;;;;;;;;5048426;28;20090;-87
2022/12/27 05:49:18;;;;;;;10.97;1.90;;;;;;;;;;5047436;28;20021;-87
2022/12/27 05:51:43;;;;;;;10.07;2.40;;;;;;;;;;5048014;28;20461;-86
2022/12/27 05:54:08;;;;;;;9.57;1.93;;;;;;;;;;5048521;28;20025;-87
2022/12/27 05:56:36;;;;;;;7.73;2.10;;;;;;;;;;5048056;28;20029;-86
2022/12/27 05:59:01;;;;;;;8.20;2.20;;;;;;;;;;5047882;28;20021;-87
2022/12/27 06:01:26;;;;;;;8.20;1.80;;;;;;;;;;5047717;28;20477;-86
2022/12/27 06:03:51;;;;;;;8.20;2.47;;;;;;;;;;5032702;28;20051;-87
2022/12/27 06:06:17;;;;;;;8.63;2.00;;;;;;;;;;5046581;28;20457;-87
2022/12/27 06:08:42;;;;;;;7.93;1.80;;;;;;;;;;5031372;28;20373;-87
2022/12/27 06:11:09;;;;;;;11.30;3.83;;;;;;;;;;5032444;28;20099;-87
2022/12/27 06:13:34;;;;;;;9.57;2.37;;;;;;;;;;5047930;28;20025;-87
2022/12/27 06:16:01;;;;;;;9.13;1.90;;;;;;;;;;5047848;28;20071;-86
2022/12/27 06:18:30;;;;;;;8.37;2.27;;;;;;;;;;5047002;28;20067;-87
2022/12/27 06:21:09;;;;;;;10.07;1.83;;;;;;;;;;5031967;28;20025;-86
2022/12/27 06:23:35;;;;;;;7.47;1.90;;;;;;;;;;5047625;28;20512;-86
2022/12/27 06:26:09;;;;;;;9.17;1.63;;;;;;;;;;5047405;28;20028;-86
2022/12/27 06:28:34;;;;;;;5.47;2.20;;;;;;;;;;5047403;28;20022;-87
2022/12/27 06:31:00;;;;;;;6.07;1.83;;;;;;;;;;5047040;28;20152;-87
2022/12/27 06:33:26;;;;;;;5.67;1.63;;;;;;;;;;5031426;28;20029;-87
2022/12/27 06:35:51;;;;;;;11.20;2.07;;;;;;;;;;5030122;28;20020;-86
2022/12/27 06:38:16;;;;;;;19.27;5.70;;;;;;;;;;5035696;28;20079;-87
2022/12/27 06:40:41;;;;;;;21.27;5.03;;;;;;;;;;5032329;28;20458;-87
2022/12/27 06:43:06;;;;;;;10.27;3.07;;;;;;;;;;5031784;28;20071;-87
2022/12/27 06:45:32;;;;;;;3.97;2.07;;;;;;;;;;5032249;28;20080;-87
2022/12/27 06:47:57;;;;;;;9.73;2.60;;;;;;;;;;5047613;28;20113;-87
2022/12/27 06:50:22;;;;;;;14.27;2.70;;;;;;;;;;5046664;28;20080;-85
2022/12/27 06:52:47;;;;;;;6.43;1.93;;;;;;;;;;5045376;28;20108;-86
2022/12/27 06:55:12;;;;;;;6.77;2.03;;;;;;;;;;5016478;28;20018;-87
2022/12/27 06:57:38;;;;;;;8.23;2.40;;;;;;;;;;5047020;28;20129;-88
2022/12/27 07:00:03;;;;;;;9.43;2.80;;;;;;;;;;5047527;28;20017;-87
2022/12/27 07:02:28;;;;;;;11.80;2.70;;;;;;;;;;5029625;28;20040;-87
2022/12/27 07:04:54;;;;;;;9.80;2.53;;;;;;;;;;5031521;28;20017;-86
2022/12/27 07:07:19;;;;;;;9.77;2.80;;;;;;;;;;5038928;28;20386;-87
2022/12/27 07:09:44;;;;;;;7.17;2.07;;;;;;;;;;5025375;28;20032;-87
2022/12/27 07:12:09;;;;;;;10.07;2.20;;;;;;;;;;5046118;28;20018;-86
2022/12/27 07:14:35;;;;;;;9.73;1.93;;;;;;;;;;5047282;28;20021;-87
2022/12/27 07:17:00;;;;;;;11.83;2.23;;;;;;;;;;5048038;28;20021;-87
2022/12/27 07:19:25;;;;;;;8.70;2.73;;;;;;;;;;5036363;28;20029;-87
2022/12/27 07:21:50;;;;;;;5.83;2.33;;;;;;;;;;5027623;28;20109;-87
2022/12/27 07:24:15;;;;;;;12.57;2.97;;;;;;;;;;5029491;28;20372;-87
2022/12/27 07:26:40;;;;;;;10.50;2.30;;;;;;;;;;5030370;28;20017;-87
2022/12/27 07:29:06;;;;;;;12.53;2.37;;;;;;;;;;5031364;28;20075;-87
2022/12/27 07:31:31;;;;;;;7.93;2.77;;;;;;;;;;5029398;28;20358;-87
2022/12/27 07:33:57;;;;;;;10.93;3.67;;;;;;;;;;5030182;28;20523;-86
2022/12/27 07:36:28;;;;;;;8.37;3.03;;;;;;;;;;5034221;28;20029;-87
2022/12/27 07:38:53;;;;;;;9.83;2.30;;;;;;;;;;5022832;28;20026;-87
2022/12/27 07:41:19;;;;;;;6.90;2.40;;;;;;;;;;5013814;28;20068;-87
2022/12/27 07:43:44;;;;;;;9.60;3.20;;;;;;;;;;5034644;28;20044;-86
2022/12/27 07:46:13;;;;;;;13.37;4.03;;;;;;;;;;5029653;28;20527;-87
2022/12/27 07:48:39;;;;;;;19.40;5.40;;;;;;;;;;5033369;28;20109;-87
2022/12/27 07:51:04;;;;;;;11.43;3.60;;;;;;;;;;5026563;28;20468;-88
2022/12/27 07:53:30;;;;;;;7.20;2.27;;;;;;;;;;5029803;28;20025;-87
2022/12/27 07:55:55;;;;;;;9.67;2.60;;;;;;;;;;5027717;28;20025;-88
2022/12/27 07:58:21;;;;;;;7.73;2.23;;;;;;;;;;5023422;28;20021;-87
2022/12/27 08:00:47;;;;;;;11.53;2.63;;;;;;;;;;5046692;28;20414;-87
2022/12/27 08:03:12;;;;;;;5.60;2.20;;;;;;;;;;5042726;28;20101;-87
2022/12/27 08:05:37;;;;;;;8.20;2.00;;;;;;;;;;5046487;28;20163;-87
2022/12/27 08:08:03;;;;;;;6.70;2.00;;;;;;;;;;5048440;28;20006;-87
2022/12/27 08:10:28;;;;;;;8.07;2.37;;;;;;;;;;5034108;28;20469;-87
2022/12/27 08:12:53;;;;;;;7.87;2.57;;;;;;;;;;5026189;28;20552;-88
2022/12/27 08:15:19;;;;;;;8.87;2.40;;;;;;;;;;5048213;28;20052;-87
2022/12/27 08:17:44;;;;;;;6.37;2.27;;;;;;;;;;5034447;28;20021;-87
2022/12/27 08:20:12;;;;;;;15.40;4.10;;;;;;;;;;5050273;28;20049;-87
2022/12/27 08:22:37;;;;;;;10.13;3.30;;;;;;;;;;5054036;28;20087;-87
2022/12/27 08:25:02;;;;;;;7.77;2.90;;;;;;;;;;5033273;28;20025;-87
2022/12/27 08:27:27;;;;;;;10.87;3.30;;;;;;;;;;5048385;28;20022;-88
2022/12/27 08:29:53;;;;;;;9.13;2.87;;;;;;;;;;5032758;28;20101;-87
2022/12/27 08:32:18;;;;;;;11.27;2.47;;;;;;;;;;5049005;28;20442;-87
2022/12/27 08:34:43;;;;;;;9.57;2.37;;;;;;;;;;5032711;28;20022;-87
2022/12/27 08:37:08;;;;;;;9.10;2.10;;;;;;;;;;5031930;28;20112;-85
2022/12/27 08:39:33;;;;;;;9.10;2.27;;;;;;;;;;5034067;28;20033;-86
2022/12/27 08:41:59;;;;;;;16.53;3.03;;;;;;;;;;5057815;28;20025;-84
2022/12/27 08:44:26;;;;;;;9.70;2.50;;;;;;;;;;5032909;28;20041;-88
2022/12/27 08:46:51;;;;;;;10.17;3.27;;;;;;;;;;5032844;28;20461;-86
2022/12/27 08:49:16;;;;;;;14.33;4.97;;;;;;;;;;5048947;28;20010;-85
2022/12/27 08:51:42;;;;;;;8.27;2.57;;;;;;;;;;5031623;28;20136;-86
2022/12/27 08:54:07;;;;;;;10.37;2.70;;;;;;;;;;5047660;28;20430;-86
2022/12/27 08:56:32;;;;;;;9.27;2.67;;;;;;;;;;5047534;28;20079;-87
2022/12/27 08:58:57;;;;;;;7.53;2.23;;;;;;;;;;5045460;28;20046;-86
2022/12/27 09:01:24;;;;;;;9.77;2.63;;;;;;;;;;5033695;28;20022;-87
2022/12/27 09:03:49;;;;;;;7.20;2.47;;;;;;;;;;5048749;28;20013;-87
2022/12/27 09:06:19;;;;;;;7.77;2.53;;;;;;;;;;5048922;28;20017;-87
2022/12/27 09:08:44;;;;;;;9.77;2.70;;;;;;;;;;5047896;28;20021;-86
2022/12/27 09:11:12;;;;;;;9.33;2.30;;;;;;;;;;5029739;28;20021;-87
2022/12/27 09:13:37;;;;;;;9.27;3.07;;;;;;;;;;5047851;28;20017;-87
2022/12/27 09:16:09;;;;;;;7.00;2.30;;;;;;;;;;5047544;28;20434;-86
2022/12/27 09:18:35;;;;;;;6.63;2.30;;;;;;;;;;5031197;28;20025;-85
2022/12/27 09:21:08;;;;;;;7.63;2.33;;;;;;;;;;5032567;28;20427;-84
2022/12/27 09:23:34;;;;;;;9.27;2.60;;;;;;;;;;5030230;28;20017;-85
2022/12/27 09:26:03;;;;;;;11.83;2.33;;;;;;;;;;5043981;28;20022;-85
2022/12/27 09:28:28;;;;;;;6.30;1.97;;;;;;;;;;5045820;28;20477;-86
2022/12/27 09:30:53;;;;;;;13.87;2.53;;;;;;;;;;5046266;28;20116;-86
2022/12/27 09:33:18;;;;;;;7.07;2.40;;;;;;;;;;5031412;28;20028;-87
2022/12/27 09:35:44;;;;;;;10.33;2.40;;;;;;;;;;5031218;28;20017;-86
2022/12/27 09:38:09;;;;;;;6.80;2.00;;;;;;;;;;5045329;28;21682;-86
2022/12/27 09:40:35;;;;;;;10.97;2.37;;;;;;;;;;5031164;28;20083;-86
2022/12/27 09:43:05;;;;;;;7.03;2.07;;;;;;;;;;5029591;28;20125;-86
2022/12/27 09:45:34;;;;;;;3.70;1.90;;;;;;;;;;5026567;28;20117;-86
2022/12/27 09:48:01;;;;;;;5.37;2.00;;;;;;;;;;5048359;28;20049;-87
2022/12/27 09:50:30;;;;;;;6.03;1.67;;;;;;;;;;5032357;28;20036;-87
2022/12/27 09:53:07;;;;;;;6.33;1.80;;;;;;;;;;5025588;28;20033;-87
2022/12/27 09:55:40;;;;;;;7.90;2.30;;;;;;;;;;5029720;28;20017;-86
2022/12/27 09:58:32;;;;;;;11.40;2.00;;;;;;;;;;5032011;28;20068;-86
2022/12/27 10:00:57;;;;;;;7.97;2.30;;;;;;;;;;5030888;28;20037;-86
2022/12/27 10:03:26;;;;;;;9.03;2.77;;;;;;;;;;5048013;28;20083;-86
2022/12/27 10:06:10;;;;;;;10.93;2.30;;;;;;;;;;5032429;28;20021;-86
2022/12/27 10:08:42;;;;;;;8.20;2.10;;;;;;;;;;5046779;28;20021;-86
2022/12/27 10:11:34;;;;;;;4.82;1.65;;;;;;;;;;5026416;28;20210;-86
2022/12/27 10:13:56;;;;;;;6.20;2.43;;;;;;;;;;5031097;28;20099;-86
2022/12/27 10:16:28;;;;;;;7.00;2.77;;;;;;;;;;5031255;28;20128;-87
2022/12/27 10:18:59;;;;;;;5.38;2.03;;;;;;;;;;5026572;28;20048;-86
2022/12/27 10:21:26;;;;;;;7.07;1.87;;;;;;;;;;5047422;28;20032;-86
2022/12/27 10:23:56;;;;;;;10.30;2.00;;;;;;;;;;5045237;28;20465;-86
2022/12/27 10:26:21;;;;;;;9.70;1.90;;;;;;;;;;5030483;28;20428;-86
2022/12/27 10:29:07;;;;;;;18.50;2.00;;;;;;;;;;5029918;28;20043;-86
2022/12/27 10:31:33;;;;;;;4.77;1.83;;;;;;;;;;5031290;28;20131;-85
2022/12/27 10:33:59;;;;;;;10.17;1.60;;;;;;;;;;5032273;28;20036;-86
2022/12/27 10:36:26;;;;;;;5.63;1.77;;;;;;;;;;5040022;28;20474;-86
2022/12/27 10:38:51;;;;;;;8.13;2.17;;;;;;;;;;5026858;28;20034;-86
2022/12/27 10:41:25;;;;;;;5.13;1.73;;;;;;;;;;5030919;28;20346;-86
2022/12/27 10:43:52;;;;;;;8.43;1.80;;;;;;;;;;5024294;28;20104;-86
2022/12/27 10:46:20;;;;;;;6.03;2.00;;;;;;;;;;5044163;28;20021;-86
2022/12/27 10:49:03;;;;;;;9.07;1.90;;;;;;;;;;5046844;28;20104;-86
2022/12/27 10:51:36;;;;;;;5.20;1.90;;;;;;;;;;5030539;28;20071;-86
2022/12/27 10:54:01;;;;;;;;;;;;;;;;;;5031324;28;20029;-86
2022/12/27 10:56:27;;;;;;;12.25;2.47;;;;;;;;;;5046750;28;19909;-86
2022/12/27 10:59:05;;;;;;;10.93;1.60;;;;;;;;;;5045798;28;20031;-86
2022/12/27 11:01:33;;;;;;;9.00;1.80;;;;;;;;;;5028396;28;20546;-86
2022/12/27 11:04:15;;;;;;;7.27;1.87;;;;;;;;;;5029749;28;20022;-87
2022/12/27 11:06:41;;;;;;;7.28;1.55;;;;;;;;;;5029115;28;20356;-86
2022/12/27 11:09:25;;;;;;;7.37;1.70;;;;;;;;;;5042861;28;20096;-84
2022/12/27 11:11:51;;;;;;;9.63;2.17;;;;;;;;;;5044041;28;20033;-84
2022/12/27 11:14:18;;;;;;;12.50;2.33;;;;;;;;;;5029942;28;20017;-84
2022/12/27 11:16:44;;;;;;;11.17;2.60;;;;;;;;;;5027749;28;20029;-84
2022/12/27 11:19:20;;;;;;;7.97;2.03;;;;;;;;;;5040435;28;20028;-83
2022/12/27 11:21:45;;;;;;;8.37;2.40;;;;;;;;;;5029440;28;20022;-84
2022/12/27 11:24:12;;;;;;;15.63;2.90;;;;;;;;;;5045824;28;20469;-85
2022/12/27 11:26:49;;;;;;;11.03;2.17;;;;;;;;;;5029479;28;20014;-84
2022/12/27 11:29:16;;;;;;;6.13;2.07;;;;;;;;;;5033751;28;20091;-84
2022/12/27 11:31:46;;;;;;;6.97;1.70;;;;;;;;;;5030774;28;20029;-85
2022/12/27 11:34:12;;;;;;;6.13;1.60;;;;;;;;;;5019664;28;20025;-84
2022/12/27 11:36:40;;;;;;;7.60;1.80;;;;;;;;;;5019011;28;20187;-84
2022/12/27 11:39:06;;;;;;;6.80;1.30;;;;;;;;;;5025982;28;20033;-86
2022/12/27 11:41:31;;;;;;;11.47;2.13;;;;;;;;;;5043495;28;20096;-86
2022/12/27 11:44:17;;;;;;;6.07;1.70;;;;;;;;;;5033230;28;20049;-86
2022/12/27 11:46:42;;;;;;;7.00;2.10;;;;;;;;;;5036671;28;20473;-85
2022/12/27 11:49:15;;;;;;;7.47;2.30;;;;;;;;;;5049290;28;20032;-85
2022/12/27 11:51:59;;;;;;;13.73;2.20;;;;;;;;;;5046560;28;20526;-86
2022/12/27 11:54:43;;;;;;;9.07;2.50;;;;;;;;;;5042207;28;20440;-85
2022/12/27 11:57:20;;;;;;;7.83;1.83;;;;;;;;;;5050358;28;20535;-86
2022/12/27 11:59:57;;;;;;;12.30;2.00;;;;;;;;;;5044618;28;20071;-86
2022/12/27 12:02:29;;;;;;;11.70;2.67;;;;;;;;;;5049663;28;20038;-85
2022/12/27 12:04:57;;;;;;;9.38;2.53;;;;;;;;;;5033397;28;20033;-86
2022/12/27 12:07:41;;;;;;;10.17;2.37;;;;;;;;;;5045176;28;20112;-85
2022/12/27 12:10:18;;;;;;;7.43;1.60;;;;;;;;;;5034684;28;20323;-86
2022/12/27 12:12:55;;;;;;;15.30;2.00;;;;;;;;;;5050012;28;20031;-88
2022/12/27 12:15:36;;;;;;;9.17;2.07;;;;;;;;;;5035172;28;20029;-88
2022/12/27 12:18:07;;;;;;;9.77;2.07;;;;;;;;;;5046375;28;20080;-86
2022/12/27 12:20:42;;;;;;;8.00;2.00;;;;;;;;;;5045573;28;20029;-87
2022/12/27 12:23:40;;;;;;;5.03;1.97;;;;;;;;;;5027749;28;20078;-87
2022/12/27 12:26:23;;;;;;;12.97;2.77;;;;;;;;;;5023921;28;20065;-86
2022/12/27 12:28:52;;;;;;;6.97;2.50;;;;;;;;;;5039852;28;20096;-87
2022/12/27 12:31:17;;;;;;;11.17;2.40;;;;;;;;;;5048225;28;20029;-86
2022/12/27 12:34:03;;;;;;;7.37;2.10;;;;;;;;;;5033897;28;20155;-86
2022/12/27 12:36:37;;;;;;;8.47;2.10;;;;;;;;;;5023727;28;20053;-87
2022/12/27 12:39:21;;;;;;;6.27;2.00;;;;;;;;;;5033359;28;20033;-87
2022/12/27 12:41:54;;;;;;;8.67;2.20;;;;;;;;;;5047750;28;20036;-86
2022/12/27 12:44:22;;;;;;;10.30;2.20;;;;;;;;;;5047357;28;20052;-86
2022/12/27 12:46:55;;;;;;;10.10;2.53;;;;;;;;;;5033309;28;20026;-87
2022/12/27 12:49:39;;;;;;;10.90;2.63;;;;;;;;;;5040839;28;20101;-86
2022/12/27 12:52:13;;;;;;;10.43;2.50;;;;;;;;;;5039359;28;20040;-86
2022/12/27 12:54:42;;;;;;;10.67;2.60;;;;;;;;;;5025722;28;20060;-86
2022/12/27 12:57:19;;;;;;;14.50;2.93;;;;;;;;;;5031172;28;20116;-87
2022/12/27 12:59:44;;;;;;;8.00;2.33;;;;;;;;;;5036038;28;20388;-86
2022/12/27 13:02:28;;;;;;;10.93;3.83;;;;;;;;;;5032146;28;20024;-87
2022/12/27 13:04:59;;;;;;;17.67;5.63;;;;;;;;;;5033250;28;20021;-87
2022/12/27 13:07:40;;;;;;;15.07;7.33;;;;;;;;;;5048887;28;20024;-86
2022/12/27 13:10:24;;;;;;;11.02;3.30;;;;;;;;;;5048741;28;20096;-87
2022/12/27 13:12:53;;;;;;;7.40;1.92;;;;;;;;;;5031458;28;20420;-87
2022/12/27 13:15:27;;;;;;;9.75;2.30;;;;;;;;;;5048843;28;20035;-87
2022/12/27 13:18:03;;;;;;;7.72;2.17;;;;;;;;;;5048942;28;20036;-87
2022/12/27 13:20:34;;;;;;;7.25;2.42;;;;;;;;;;5048647;28;20188;-87
2022/12/27 13:23:11;;;;;;;5.05;1.60;;;;;;;;;;5048889;28;20017;-87
2022/12/27 13:25:39;;;;;;;10.77;2.05;;;;;;;;;;5031722;28;20100;-86
2022/12/27 13:28:25;;;;;;;10.50;3.33;;;;;;;;;;5030878;28;20017;-87
2022/12/27 13:31:04;;;;;;;8.33;2.20;;;;;;;;;;5025947;28;20485;-87
2022/12/27 13:33:29;;;;;;;8.00;2.20;;;;;;;;;;5048515;28;20045;-87
2022/12/27 13:36:14;;;;;;;12.80;3.15;;;;;;;;;;5045947;28;20017;-87
2022/12/27 13:38:59;;;;;;;7.70;2.07;;;;;;;;;;5039690;28;20048;-86
2022/12/27 13:41:31;;;;;;;12.50;2.40;;;;;;;;;;5030692;28;20052;-86
2022/12/27 13:44:15;;;;;;;8.10;2.00;;;;;;;;;;5031074;28;20075;-86
2022/12/27 13:46:58;;;;;;;6.43;2.10;;;;;;;;;;5020142;28;20014;-87
2022/12/27 13:49:26;;;;;;;10.20;1.90;;;;;;;;;;5047727;28;20049;-86
2022/12/27 13:51:54;;;;;;;11.30;2.10;;;;;;;;;;5039988;28;20140;-86
2022/12/27 13:54:19;;;;;;;10.60;2.63;;;;;;;;;;5033065;28;20031;-86
2022/12/27 13:57:07;;;;;;;8.82;2.25;;;;;;;;;;5041229;28;20026;-87
2022/12/27 13:59:48;;;;;;;10.20;3.00;;;;;;;;;;5027946;28;20041;-86
2022/12/27 14:02:32;;;;;;;8.73;2.00;;;;;;;;;;5041797;28;20048;-86
2022/12/27 14:05:00;;;;;;;7.50;2.30;;;;;;;;;;5028142;28;20029;-85
2022/12/27 14:07:28;;;;;;;11.30;2.45;;;;;;;;;;5030349;28;20029;-87
2022/12/27 14:10:25;;;;;;;6.35;2.58;;;;;;;;;;5030931;28;20014;-86
2022/12/27 14:12:56;;;;;;;7.65;2.42;;;;;;;;;;5024505;28;20059;-86
2022/12/27 14:15:24;;;;;;;11.33;2.63;;;;;;;;;;5029897;28;20036;-86
2022/12/27 14:18:08;;;;;;;8.07;1.90;;;;;;;;;;5030351;28;20465;-86
2022/12/27 14:20:33;;;;;;;8.18;2.03;;;;;;;;;;5029994;28;20029;-86
2022/12/27 14:23:12;;;;;;;14.32;1.90;;;;;;;;;;5028911;28;20514;-86
2022/12/27 14:25:37;;;;;;;9.77;1.63;;;;;;;;;;5029313;28;20025;-85
2022/12/27 14:28:02;;;;;;;8.95;2.20;;;;;;;;;;5029116;28;20381;-85
2022/12/27 14:30:44;;;;;;;13.13;2.25;;;;;;;;;;5028915;28;20116;-84
2022/12/27 14:33:28;;;;;;;8.05;2.72;;;;;;;;;;5030479;28;20417;-86
2022/12/27 14:35:53;;;;;;;12.65;2.45;;;;;;;;;;5028031;28;20468;-85
2022/12/27 14:38:37;;;;;;;4.90;1.88;;;;;;;;;;5030140;28;20018;-85
2022/12/27 14:41:05;;;;;;;9.77;2.90;;;;;;;;;;5029801;28;20175;-85
2022/12/27 14:43:39;;;;;;;11.35;2.30;;;;;;;;;;5034051;28;20029;-86
2022/12/27 14:46:17;;;;;;;10.23;2.20;;;;;;;;;;5029682;28;20469;-86
2022/12/27 14:48:45;;;;;;;12.57;2.70;;;;;;;;;;5047173;28;20037;-86
2022/12/27 14:51:36;;;;;;;11.48;3.03;;;;;;;;;;5029574;28;20120;-86
2022/12/27 14:54:15;;;;;;;7.00;2.58;;;;;;;;;;5038484;28;20033;-86
2022/12/27 14:56:52;;;;;;;10.57;2.20;;;;;;;;;;5027034;28;20346;-85
2022/12/27 14:59:24;;;;;;;6.72;2.17;;;;;;;;;;5038828;28;20032;-86
2022/12/27 15:02:19;;;;;;;7.10;2.30;;;;;;;;;;5046743;28;20021;-86
2022/12/27 15:04:45;;;;;;;14.77;2.27;;;;;;;;;;5045542;28;20045;-85
2022/12/27 15:07:16;;;;;;;8.87;1.80;;;;;;;;;;5044664;28;20437;-85
2022/12/27 15:09:56;;;;;;;14.05;2.65;;;;;;;;;;5029521;28;20021;-85
2022/12/27 15:12:24;;;;;;;5.20;1.40;;;;;;;;;;5023104;28;20059;-86
2022/12/27 15:14:52;;;;;;;8.63;1.53;;;;;;;;;;5027530;28;20152;-86
2022/12/27 15:17:34;;;;;;;7.78;2.05;;;;;;;;;;5041249;28;20060;-85
2022/12/27 15:20:30;;;;;;;6.22;2.28;;;;;;;;;;5050795;28;20027;-85
2022/12/27 15:22:59;;;;;;;8.43;1.97;;;;;;;;;;5042831;28;20564;-85
2022/12/27 15:25:37;;;;;;;7.77;3.27;;;;;;;;;;5033598;28;20009;-85
2022/12/27 15:28:20;;;;;;;7.73;2.50;;;;;;;;;;5050850;28;20116;-85
2022/12/27 15:30:54;;;;;;;11.48;2.10;;;;;;;;;;5033149;28;20052;-85
2022/12/27 15:33:30;;;;;;;11.73;3.03;;;;;;;;;;5050884;28;20022;-85
2022/12/27 15:36:01;;;;;;;9.93;2.27;;;;;;;;;;5032360;28;20091;-85
2022/12/27 15:38:39;;;;;;;8.53;2.20;;;;;;;;;;5040281;28;20029;-85
2022/12/27 15:41:08;;;;;;;11.17;2.17;;;;;;;;;;5050439;28;20021;-85
2022/12/27 15:43:39;;;;;;;10.73;2.50;;;;;;;;;;5035616;28;20519;-85
2022/12/27 15:46:16;;;;;;;11.00;2.43;;;;;;;;;;5047986;28;20439;-84
2022/12/27 15:48:57;;;;;;;16.67;2.10;;;;;;;;;;5049510;28;20037;-85
2022/12/27 15:51:22;;;;;;;5.87;1.90;;;;;;;;;;5034313;28;20022;-85
2022/12/27 15:54:06;;;;;;;5.60;1.80;;;;;;;;;;5033778;28;20116;-85
2022/12/27 15:56:31;;;;;;;5.30;2.00;;;;;;;;;;5028146;28;20638;-83
2022/12/27 15:59:15;;;;;;;6.03;1.53;;;;;;;;;;5034201;28;20017;-84
2022/12/27 16:01:40;;;;;;;8.57;1.43;;;;;;;;;;5032690;28;20461;-85
2022/12/27 16:04:25;;;;;;;8.03;1.70;;;;;;;;;;5041891;28;20098;-85
2022/12/27 16:06:51;;;;;;;9.10;2.00;;;;;;;;;;5044851;28;20037;-85
2022/12/27 16:09:16;;;;;;;11.37;1.90;;;;;;;;;;5024237;28;20033;-86
2022/12/27 16:11:59;;;;;;;6.97;1.63;;;;;;;;;;5041060;28;20112;-84
2022/12/27 16:14:42;;;;;;;4.83;2.23;;;;;;;;;;5032544;28;20021;-84
2022/12/27 16:17:20;;;;;;;5.57;1.40;;;;;;;;;;5036800;28;20045;-85
2022/12/27 16:19:54;;;;;;;5.43;1.73;;;;;;;;;;5034063;28;20010;-85
2022/12/27 16:22:25;;;;;;;6.70;2.10;;;;;;;;;;5039725;28;20078;-85
2022/12/27 16:24:50;;;;;;;5.37;2.07;;;;;;;;;;5033867;28;20596;-84
2022/12/27 16:27:29;;;;;;;11.00;2.47;;;;;;;;;;5039803;28;20112;-85
2022/12/27 16:29:55;;;;;;;13.17;2.50;;;;;;;;;;5033497;28;20239;-85
2022/12/27 16:32:22;;;;;;;11.80;2.10;;;;;;;;;;5029689;28;20105;-84